createdAt,value
2022-12-18T00:00:06.868Z,16.00
2022-12-18T00:03:02.144Z,18.60
2022-12-18T00:05:30.595Z,15.80
2022-12-18T00:07:58.905Z,16.20
2022-12-18T00:10:29.113Z,14.60
2022-12-18T00:12:57.264Z,15.40
2022-12-18T00:15:25.954Z,15.40
2022-12-18T00:17:54.420Z,15.00
2022-12-18T00:20:26.659Z,15.60
2022-12-18T00:22:55.341Z,17.50
2022-12-18T00:25:24.125Z,17.30
2022-12-18T00:27:52.472Z,19.40
2022-12-18T00:30:20.780Z,20.00
2022-12-18T00:32:48.880Z,17.70
2022-12-18T00:35:17.003Z,18.30
2022-12-18T00:37:45.334Z,18.10
2022-12-18T00:40:13.762Z,18.00
2022-12-18T00:42:56.848Z,17.50
2022-12-18T00:45:30.256Z,15.20
2022-12-18T00:47:59.015Z,15.80
2022-12-18T00:50:27.699Z,19.40
2022-12-18T00:52:55.841Z,18.80
2022-12-18T00:55:24.236Z,19.60
2022-12-18T00:57:53.480Z,19.20
2022-12-18T01:00:21.884Z,19.00
2022-12-18T01:02:50.744Z,18.90
2022-12-18T01:05:19.758Z,18.40
2022-12-18T01:07:47.931Z,18.90
2022-12-18T01:10:16.106Z,18.60
2022-12-18T01:12:44.500Z,16.20
2022-12-18T01:15:14.419Z,17.40
2022-12-18T01:17:43.518Z,15.30
2022-12-18T01:20:13.319Z,14.30
2022-12-18T01:22:41.379Z,17.90
2022-12-18T01:25:10.594Z,18.80
2022-12-18T01:27:38.772Z,18.60
2022-12-18T01:30:07.508Z,16.60
2022-12-18T01:32:35.709Z,17.90
2022-12-18T01:35:04.561Z,16.80
2022-12-18T01:37:32.693Z,18.20
2022-12-18T01:40:00.771Z,15.10
2022-12-18T01:42:29.366Z,17.70
2022-12-18T01:45:12.851Z,15.60
2022-12-18T01:48:01.916Z,14.40
2022-12-18T01:50:44.277Z,15.10
2022-12-18T01:53:20.009Z,16.30
2022-12-18T01:55:52.911Z,12.40
2022-12-18T01:58:31.252Z,17.00
2022-12-18T02:05:53.595Z,15.80
2022-12-18T02:08:28.322Z,16.00
2022-12-18T02:11:24.492Z,16.00
2022-12-18T02:14:11.969Z,15.80
2022-12-18T02:16:53.874Z,16.20
2022-12-18T02:19:40.748Z,16.50
2022-12-18T02:22:09.086Z,15.20
2022-12-18T02:24:59.790Z,13.50
2022-12-18T02:30:02.372Z,15.70
2022-12-18T02:32:35.503Z,13.90
2022-12-18T02:35:07.073Z,12.50
2022-12-18T02:37:37.632Z,16.50
2022-12-18T02:40:08.862Z,16.20
2022-12-18T02:42:38.125Z,15.90
2022-12-18T02:45:08.280Z,17.10
2022-12-18T02:47:40.139Z,15.40
2022-12-18T02:50:32.818Z,15.00
2022-12-18T02:53:45.385Z,14.40
2022-12-18T02:56:44.697Z,14.90
2022-12-18T02:59:19.885Z,15.20
2022-12-18T03:01:54.864Z,14.00
2022-12-18T03:04:32.230Z,14.70
2022-12-18T03:07:04.459Z,16.00
2022-12-18T03:09:37.577Z,13.30
2022-12-18T03:12:23.949Z,14.10
2022-12-18T03:14:59.743Z,14.10
2022-12-18T03:17:31.503Z,17.40
2022-12-18T03:20:06.975Z,17.00
2022-12-18T03:22:38.485Z,15.20
2022-12-18T03:25:11.198Z,17.30
2022-12-18T03:27:46.172Z,16.00
2022-12-18T03:30:18.891Z,14.60
2022-12-18T03:33:00.238Z,15.20
2022-12-18T03:35:34.475Z,15.50
2022-12-18T03:38:03.033Z,15.00
2022-12-18T03:40:46.587Z,13.60
2022-12-18T03:43:53.819Z,13.90
2022-12-18T03:46:41.750Z,15.00
2022-12-18T03:49:26.869Z,14.80
2022-12-18T03:52:05.084Z,16.00
2022-12-18T03:54:36.470Z,15.40
2022-12-18T03:57:18.169Z,16.10
2022-12-18T03:59:49.489Z,15.00
2022-12-18T04:02:19.792Z,16.60
2022-12-18T04:04:50.657Z,16.00
2022-12-18T04:07:20.154Z,14.90
2022-12-18T04:09:50.671Z,13.80
2022-12-18T04:14:49.501Z,16.40
2022-12-18T04:17:19.332Z,15.50
2022-12-18T04:19:48.634Z,14.80
2022-12-18T04:22:17.577Z,14.30
2022-12-18T04:24:48.015Z,14.50
2022-12-18T04:27:23.246Z,14.90
2022-12-18T04:29:51.957Z,16.40
2022-12-18T04:32:20.205Z,15.70
2022-12-18T04:34:49.109Z,14.90
2022-12-18T04:37:17.347Z,14.60
2022-12-18T04:39:46.114Z,13.40
2022-12-18T04:42:23.032Z,15.40
2022-12-18T04:44:51.127Z,15.20
2022-12-18T04:47:19.409Z,13.70
2022-12-18T04:49:48.019Z,14.20
2022-12-18T04:52:16.038Z,14.70
2022-12-18T04:54:44.181Z,16.50
2022-12-18T04:57:12.889Z,15.10
2022-12-18T04:59:42.363Z,18.00
2022-12-18T05:02:10.637Z,16.60
2022-12-18T05:04:39.994Z,15.20
2022-12-18T05:07:08.071Z,14.30
2022-12-18T05:09:36.459Z,16.20
2022-12-18T05:12:05.040Z,15.60
2022-12-18T05:14:33.170Z,16.60
2022-12-18T05:17:01.463Z,15.10
2022-12-18T05:19:30.407Z,16.40
2022-12-18T05:21:58.762Z,16.30
2022-12-18T05:24:27.101Z,17.30
2022-12-18T05:26:56.021Z,16.80
2022-12-18T05:29:24.199Z,17.10
2022-12-18T05:31:52.360Z,17.90
2022-12-18T05:34:21.233Z,16.90
2022-12-18T05:36:49.337Z,17.60
2022-12-18T05:39:17.486Z,16.10
2022-12-18T05:41:45.889Z,14.60
2022-12-18T05:44:14.969Z,14.80
2022-12-18T05:46:43.146Z,14.60
2022-12-18T05:49:11.463Z,15.90
2022-12-18T05:51:39.597Z,16.80
2022-12-18T05:54:08.524Z,16.60
2022-12-18T05:56:36.638Z,13.90
2022-12-18T05:59:04.744Z,16.80
2022-12-18T06:01:32.866Z,17.00
2022-12-18T06:04:01.883Z,16.50
2022-12-18T06:06:30.101Z,17.50
2022-12-18T06:08:58.607Z,16.20
2022-12-18T06:11:28.205Z,16.60
2022-12-18T06:13:59.583Z,15.70
2022-12-18T06:16:30.101Z,16.50
2022-12-18T06:19:04.158Z,15.50
2022-12-18T06:21:33.279Z,14.30
2022-12-18T06:24:02.066Z,15.90
2022-12-18T06:26:30.170Z,16.40
2022-12-18T06:28:58.720Z,15.60
2022-12-18T06:31:27.217Z,14.70
2022-12-18T06:33:55.380Z,17.50
2022-12-18T06:36:24.260Z,15.40
2022-12-18T06:38:52.427Z,15.10
2022-12-18T06:41:22.147Z,15.30
2022-12-18T06:43:50.737Z,16.20
2022-12-18T06:46:18.972Z,18.20
2022-12-18T06:48:51.703Z,14.60
2022-12-18T06:51:21.780Z,15.90
2022-12-18T06:53:49.910Z,16.80
2022-12-18T06:56:18.473Z,15.90
2022-12-18T06:58:46.737Z,14.90
2022-12-18T07:01:15.353Z,14.90
2022-12-18T07:03:44.811Z,14.90
2022-12-18T07:06:16.059Z,16.20
2022-12-18T07:08:44.950Z,14.70
2022-12-18T07:11:13.255Z,14.80
2022-12-18T07:13:42.108Z,14.50
2022-12-18T07:16:18.375Z,14.70
2022-12-18T07:18:50.921Z,15.60
2022-12-18T07:21:20.774Z,16.30
2022-12-18T07:23:49.543Z,17.60
2022-12-18T07:26:20.664Z,16.50
2022-12-18T07:28:49.670Z,18.70
2022-12-18T07:31:21.594Z,17.30
2022-12-18T07:33:51.788Z,16.40
2022-12-18T07:36:20.726Z,16.30
2022-12-18T07:38:50.184Z,16.60
2022-12-18T07:41:20.691Z,15.40
2022-12-18T07:43:49.126Z,15.30
2022-12-18T07:46:17.812Z,10.40
2022-12-18T07:48:49.968Z,16.70
2022-12-18T07:51:19.518Z,15.70
2022-12-18T07:53:50.323Z,17.30
2022-12-18T07:56:30.324Z,16.80
2022-12-18T07:59:00.620Z,15.80
2022-12-18T08:01:31.799Z,16.90
2022-12-18T08:04:00.116Z,16.70
2022-12-18T08:06:28.539Z,16.60
2022-12-18T08:08:56.941Z,13.40
2022-12-18T08:11:27.940Z,16.20
2022-12-18T08:13:56.939Z,15.60
2022-12-18T08:16:25.459Z,15.80
2022-12-18T08:18:54.496Z,17.90
2022-12-18T08:21:28.430Z,15.30
2022-12-18T08:23:59.011Z,15.90
2022-12-18T08:26:30.353Z,14.80
2022-12-18T08:29:00.748Z,16.00
2022-12-18T08:31:31.017Z,17.20
2022-12-18T08:34:00.100Z,16.50
2022-12-18T08:36:28.182Z,16.20
2022-12-18T08:38:57.477Z,14.80
2022-12-18T08:41:26.068Z,13.10
2022-12-18T08:44:12.425Z,13.80
2022-12-18T08:46:43.142Z,15.50
2022-12-18T08:49:12.401Z,14.70
2022-12-18T08:51:40.891Z,15.70
2022-12-18T08:54:12.648Z,14.30
2022-12-18T08:56:40.735Z,12.70
2022-12-18T08:59:13.156Z,12.50
2022-12-18T09:01:46.719Z,13.80
2022-12-18T09:04:18.086Z,14.50
2022-12-18T09:06:46.271Z,13.80
2022-12-18T09:09:14.337Z,14.50
2022-12-18T09:11:42.656Z,12.60
2022-12-18T09:14:11.510Z,11.80
2022-12-18T09:16:39.743Z,14.00
2022-12-18T09:19:07.958Z,15.40
2022-12-18T09:21:37.138Z,13.80
2022-12-18T09:24:08.622Z,13.30
2022-12-18T09:26:38.104Z,12.50
2022-12-18T09:29:08.371Z,12.40
2022-12-18T09:31:37.672Z,13.10
2022-12-18T09:34:07.294Z,13.40
2022-12-18T09:36:35.754Z,14.50
2022-12-18T09:39:08.240Z,12.20
2022-12-18T09:41:45.839Z,15.30
2022-12-18T09:44:23.561Z,12.30
2022-12-18T09:47:03.642Z,12.70
2022-12-18T09:49:35.681Z,13.30
2022-12-18T09:52:21.260Z,12.90
2022-12-18T09:54:56.085Z,12.90
2022-12-18T09:57:26.728Z,14.30
2022-12-18T10:00:00.142Z,12.20
2022-12-18T10:02:32.726Z,14.10
2022-12-18T10:05:16.706Z,12.10
2022-12-18T10:08:03.763Z,12.80
2022-12-18T10:10:41.211Z,14.50
2022-12-18T10:13:19.097Z,13.90
2022-12-18T10:15:55.705Z,13.70
2022-12-18T10:18:51.720Z,14.40
2022-12-18T10:21:57.577Z,13.20
2022-12-18T10:24:40.490Z,12.00
2022-12-18T10:27:28.232Z,12.20
2022-12-18T10:29:57.116Z,13.40
2022-12-18T10:32:31.507Z,13.10
2022-12-18T10:35:00.885Z,12.70
2022-12-18T10:37:30.945Z,12.90
2022-12-18T10:40:18.279Z,12.60
2022-12-18T10:43:14.520Z,13.70
2022-12-18T10:45:58.507Z,12.70
2022-12-18T10:48:27.937Z,12.40
2022-12-18T10:51:12.620Z,12.30
2022-12-18T10:53:44.024Z,12.80
2022-12-18T10:56:13.286Z,11.60
2022-12-18T10:58:41.820Z,12.30
2022-12-18T11:01:16.862Z,13.70
2022-12-18T11:03:46.405Z,14.10
2022-12-18T11:06:21.307Z,12.60
2022-12-18T11:09:13.169Z,12.90
2022-12-18T11:11:50.352Z,12.20
2022-12-18T11:14:23.807Z,13.20
2022-12-18T11:19:42.441Z,13.80
2022-12-18T11:22:33.844Z,12.90
2022-12-18T11:27:55.981Z,13.00
2022-12-18T11:30:36.459Z,13.10
2022-12-18T11:33:18.867Z,13.30
2022-12-18T11:35:53.071Z,13.70
2022-12-18T11:38:21.587Z,13.60
2022-12-18T11:41:18.632Z,14.20
2022-12-18T11:43:51.042Z,13.30
2022-12-18T11:46:32.100Z,14.00
2022-12-18T11:51:47.653Z,14.30
2022-12-18T11:54:17.370Z,13.20
2022-12-18T11:56:52.041Z,14.40
2022-12-18T11:59:27.879Z,13.70
2022-12-18T12:02:01.742Z,13.90
2022-12-18T12:04:52.871Z,14.50
2022-12-18T12:07:42.457Z,13.70
2022-12-18T12:10:47.577Z,12.90
2022-12-18T12:13:40.875Z,13.30
2022-12-18T12:16:28.322Z,13.60
2022-12-18T12:19:29.824Z,14.40
2022-12-18T12:22:04.040Z,13.00
2022-12-18T12:24:57.141Z,13.70
2022-12-18T12:27:59.242Z,13.60
2022-12-18T12:31:03.528Z,13.40
2022-12-18T12:34:11.334Z,14.90
2022-12-18T12:36:52.484Z,14.50
2022-12-18T12:42:11.004Z,14.50
2022-12-18T12:44:55.668Z,13.20
2022-12-18T12:47:30.831Z,14.70
2022-12-18T12:50:02.972Z,13.80
2022-12-18T12:52:45.330Z,15.30
2022-12-18T12:55:22.311Z,15.30
2022-12-18T12:58:20.874Z,16.20
2022-12-18T13:01:23.540Z,13.30
2022-12-18T13:04:04.619Z,14.50
2022-12-18T13:07:06.612Z,14.50
2022-12-18T13:10:17.705Z,15.30
2022-12-18T13:12:58.061Z,14.10
2022-12-18T13:15:39.968Z,14.90
2022-12-18T13:18:11.664Z,13.30
2022-12-18T13:20:45.612Z,14.30
2022-12-18T13:23:28.829Z,16.20
2022-12-18T13:26:10.819Z,14.70
2022-12-18T13:28:48.234Z,15.40
2022-12-18T13:31:42.658Z,14.00
2022-12-18T13:34:26.300Z,15.10
2022-12-18T13:36:58.426Z,14.90
2022-12-18T13:42:54.616Z,15.80
2022-12-18T13:45:44.338Z,15.50
2022-12-18T13:48:37.159Z,15.10
2022-12-18T13:51:08.811Z,13.30
2022-12-18T13:53:43.659Z,15.80
2022-12-18T13:56:22.945Z,14.70
2022-12-18T13:59:19.453Z,16.60
2022-12-18T14:02:02.525Z,12.80
2022-12-18T14:07:22.201Z,14.90
2022-12-18T14:10:01.902Z,15.20
2022-12-18T14:12:55.020Z,13.40
2022-12-18T14:15:26.253Z,14.10
2022-12-18T14:18:00.856Z,14.50
2022-12-18T14:20:32.057Z,13.70
2022-12-18T14:23:01.457Z,14.00
2022-12-18T14:25:31.847Z,13.60
2022-12-18T14:28:13.425Z,14.00
2022-12-18T14:33:16.487Z,11.30
2022-12-18T14:36:04.503Z,13.00
2022-12-18T14:38:40.302Z,12.00
2022-12-18T14:41:12.674Z,11.80
2022-12-18T14:43:43.532Z,13.60
2022-12-18T14:46:36.432Z,12.40
2022-12-18T14:49:30.505Z,15.20
2022-12-18T14:52:05.461Z,13.70
2022-12-18T14:54:38.637Z,15.20
2022-12-18T14:57:18.818Z,15.00
2022-12-18T14:59:47.016Z,15.40
2022-12-18T15:02:27.837Z,13.00
2022-12-18T15:05:14.838Z,13.50
2022-12-18T15:07:47.378Z,15.10
2022-12-18T15:10:21.359Z,14.20
2022-12-18T15:12:51.491Z,13.50
2022-12-18T15:15:38.115Z,12.10
2022-12-18T15:18:14.024Z,14.00
2022-12-18T15:20:47.429Z,12.60
2022-12-18T15:23:20.547Z,12.50
2022-12-18T15:25:55.715Z,13.30
2022-12-18T15:28:38.443Z,13.90
2022-12-18T15:31:12.300Z,15.40
2022-12-18T15:34:00.611Z,15.60
2022-12-18T15:36:31.293Z,16.70
2022-12-18T15:39:05.449Z,16.20
2022-12-18T15:41:37.129Z,13.20
2022-12-18T15:44:23.869Z,17.10
2022-12-18T15:46:52.411Z,18.00
2022-12-18T15:49:21.328Z,16.30
2022-12-18T15:51:55.232Z,18.90
2022-12-18T15:54:43.667Z,17.30
2022-12-18T15:57:25.371Z,16.70
2022-12-18T15:59:57.461Z,17.60
2022-12-18T16:02:26.124Z,17.70
2022-12-18T16:04:55.249Z,18.30
2022-12-18T16:07:25.240Z,19.10
2022-12-18T16:09:54.006Z,19.00
2022-12-18T16:12:25.458Z,20.00
2022-12-18T16:14:53.684Z,20.20
2022-12-18T16:17:22.280Z,19.00
2022-12-18T16:19:50.640Z,19.90
2022-12-18T16:22:24.664Z,22.00
2022-12-18T16:24:54.638Z,20.00
2022-12-18T16:27:23.925Z,20.80
2022-12-18T16:29:52.508Z,19.00
2022-12-18T16:32:23.399Z,19.70
2022-12-18T16:34:51.913Z,22.80
2022-12-18T16:37:20.114Z,22.90
2022-12-18T16:39:48.445Z,22.70
2022-12-18T16:42:20.112Z,23.60
2022-12-18T16:44:50.709Z,25.70
2022-12-18T16:47:19.848Z,23.10
2022-12-18T16:49:52.021Z,24.90
2022-12-18T16:52:22.053Z,19.60
2022-12-18T16:54:50.403Z,23.90
2022-12-18T16:57:23.541Z,22.00
2022-12-18T16:59:53.961Z,22.90
2022-12-18T17:02:24.834Z,18.80
2022-12-18T17:04:56.236Z,19.20
2022-12-18T17:07:25.947Z,19.40
2022-12-18T17:09:54.671Z,19.90
2022-12-18T17:12:23.648Z,21.80
2022-12-18T17:14:52.719Z,20.30
2022-12-18T17:17:22.698Z,18.70
2022-12-18T17:19:52.686Z,20.00
2022-12-18T17:22:23.511Z,18.50
2022-12-18T17:27:20.154Z,16.50
2022-12-18T17:29:49.276Z,14.40
2022-12-18T17:32:18.261Z,15.10
2022-12-18T17:34:47.124Z,17.60
2022-12-18T17:37:15.976Z,16.80
2022-12-18T17:39:44.187Z,17.10
2022-12-18T17:42:15.520Z,16.60
2022-12-18T17:44:44.876Z,15.30
2022-12-18T17:47:14.013Z,16.00
2022-12-18T17:49:42.136Z,17.50
2022-12-18T17:52:11.088Z,19.20
2022-12-18T17:54:41.966Z,17.80
2022-12-18T17:59:39.010Z,14.20
2022-12-18T18:02:07.634Z,13.40
2022-12-18T18:04:36.759Z,17.30
2022-12-18T18:07:05.320Z,14.90
2022-12-18T18:09:33.692Z,14.80
2022-12-18T18:12:21.244Z,16.20
2022-12-18T18:14:49.543Z,13.30
2022-12-18T18:17:17.778Z,13.80
2022-12-18T18:19:49.507Z,12.70
2022-12-18T18:22:20.082Z,13.00
2022-12-18T18:24:48.599Z,13.30
2022-12-18T18:27:16.898Z,12.90
2022-12-18T18:29:45.259Z,12.60
2022-12-18T18:32:13.562Z,13.60
2022-12-18T18:34:41.953Z,13.90
2022-12-18T18:37:11.206Z,14.00
2022-12-18T18:39:39.586Z,13.50
2022-12-18T18:42:07.937Z,13.90
2022-12-18T18:44:36.973Z,15.00
2022-12-18T18:47:07.427Z,14.60
2022-12-18T18:49:38.334Z,15.50
2022-12-18T18:52:07.609Z,16.10
2022-12-18T18:54:35.804Z,15.30
2022-12-18T18:57:20.471Z,14.30
2022-12-18T18:59:49.223Z,14.80
2022-12-18T19:02:18.046Z,14.80
2022-12-18T19:04:47.147Z,12.50
2022-12-18T19:07:24.054Z,13.10
2022-12-18T19:10:03.960Z,13.80
2022-12-18T19:12:53.327Z,17.00
2022-12-18T19:15:23.357Z,15.10
2022-12-18T19:17:51.799Z,14.50
2022-12-18T19:20:20.363Z,15.90
2022-12-18T19:22:54.642Z,11.30
2022-12-18T19:25:29.961Z,15.00
2022-12-18T19:28:19.292Z,15.90
2022-12-18T19:30:59.395Z,14.60
2022-12-18T19:33:45.215Z,14.90
2022-12-18T19:36:22.342Z,17.10
2022-12-18T19:38:52.006Z,16.00
2022-12-18T19:41:21.277Z,15.50
2022-12-18T19:43:51.355Z,14.80
2022-12-18T19:46:22.755Z,15.70
2022-12-18T19:48:51.301Z,14.30
2022-12-18T19:51:27.470Z,15.90
2022-12-18T19:53:59.351Z,15.70
2022-12-18T19:56:31.969Z,15.10
2022-12-18T19:59:00.377Z,14.60
2022-12-18T20:01:32.056Z,13.00
2022-12-18T20:04:01.018Z,13.30
2022-12-18T20:06:32.566Z,12.30
2022-12-18T20:09:04.716Z,13.20
2022-12-18T20:11:35.358Z,11.50
2022-12-18T20:14:11.247Z,12.50
2022-12-18T20:16:40.514Z,12.60
2022-12-18T20:19:10.682Z,12.40
2022-12-18T20:21:39.141Z,15.20
2022-12-18T20:24:08.418Z,14.10
2022-12-18T20:26:36.751Z,13.30
2022-12-18T20:29:05.272Z,12.10
2022-12-18T20:31:33.508Z,12.90
2022-12-18T20:34:03.568Z,12.40
2022-12-18T20:36:32.878Z,12.10
2022-12-18T20:39:05.420Z,10.20
2022-12-18T20:41:38.549Z,12.60
2022-12-18T20:44:22.489Z,11.00
2022-12-18T20:46:54.809Z,12.90
2022-12-18T20:51:53.964Z,11.50
2022-12-18T20:54:23.939Z,11.70
2022-12-18T20:56:52.348Z,14.00
2022-12-18T20:59:21.008Z,14.80
2022-12-18T21:01:50.209Z,13.00
2022-12-18T21:04:19.260Z,14.50
2022-12-18T21:07:00.476Z,14.40
2022-12-18T21:09:36.945Z,12.50
2022-12-18T21:12:35.118Z,12.30
2022-12-18T21:15:10.184Z,14.00
2022-12-18T21:17:45.169Z,13.00
2022-12-18T21:20:17.970Z,11.40
2022-12-18T21:22:49.369Z,13.40
2022-12-18T21:25:18.004Z,13.20
2022-12-18T21:27:46.129Z,14.20
2022-12-18T21:30:15.319Z,12.40
2022-12-18T21:32:43.936Z,12.10
2022-12-18T21:35:12.052Z,13.70
2022-12-18T21:37:40.468Z,14.10
2022-12-18T21:40:09.424Z,13.40
2022-12-18T21:42:56.114Z,15.70
2022-12-18T21:45:24.460Z,14.30
2022-12-18T21:47:52.563Z,14.30
2022-12-18T21:50:20.929Z,13.90
2022-12-18T21:52:49.196Z,13.80
2022-12-18T21:55:17.315Z,11.50
2022-12-18T21:57:45.651Z,14.50
2022-12-18T22:00:19.002Z,12.90
2022-12-18T22:03:12.698Z,14.40
2022-12-18T22:05:38.230Z,12.80
2022-12-18T22:08:07.088Z,12.90
2022-12-18T22:10:36.144Z,12.10
2022-12-18T22:13:06.077Z,13.40
2022-12-18T22:15:34.597Z,11.20
2022-12-18T22:18:02.722Z,12.10
2022-12-18T22:20:31.694Z,11.30
2022-12-18T22:23:02.869Z,11.90
2022-12-18T22:25:34.877Z,11.20
2022-12-18T22:28:22.806Z,13.00
2022-12-18T22:30:56.365Z,12.30
2022-12-18T22:33:28.710Z,10.80
2022-12-18T22:35:57.100Z,10.20
2022-12-18T22:38:27.547Z,9.40
2022-12-18T22:40:55.682Z,9.70
2022-12-18T22:43:24.088Z,11.50
2022-12-18T22:45:55.971Z,10.90
2022-12-18T22:48:24.321Z,10.80
2022-12-18T22:50:54.804Z,11.90
2022-12-18T22:53:28.032Z,10.70
2022-12-18T22:56:02.664Z,10.90
2022-12-18T22:58:31.045Z,10.70
2022-12-18T23:00:59.313Z,9.30
2022-12-18T23:03:27.690Z,10.60
2022-12-18T23:06:05.954Z,11.00
2022-12-18T23:08:35.436Z,10.50
2022-12-18T23:11:04.850Z,10.90
2022-12-18T23:13:33.927Z,9.00
2022-12-18T23:16:08.883Z,9.90
2022-12-18T23:18:37.635Z,9.00
2022-12-18T23:21:12.826Z,9.70
2022-12-18T23:23:42.508Z,10.70
2022-12-18T23:26:16.444Z,10.10
2022-12-18T23:28:44.768Z,11.00
2022-12-18T23:31:15.696Z,10.40
2022-12-18T23:33:46.624Z,11.10
2022-12-18T23:36:15.875Z,10.90
2022-12-18T23:38:49.424Z,9.40
2022-12-18T23:41:20.083Z,10.50
2022-12-18T23:43:48.632Z,10.20
2022-12-18T23:46:23.441Z,12.40
2022-12-18T23:48:52.475Z,10.50
2022-12-18T23:51:26.041Z,9.80
2022-12-18T23:53:56.217Z,10.50
2022-12-18T23:56:25.322Z,11.10
2022-12-18T23:58:53.955Z,12.00
